createdAt,value
2018-05-21T00:01:28.406Z,11.13
2018-05-21T00:02:28.322Z,11.22
2018-05-21T00:04:21.103Z,11.19
2018-05-21T00:05:20.955Z,11.13
2018-05-21T00:07:13.804Z,11.13
2018-05-21T00:08:13.709Z,11.13
2018-05-21T00:10:06.604Z,11.15
2018-05-21T00:11:06.454Z,11.09
2018-05-21T00:12:59.200Z,11.09
2018-05-21T00:13:59.103Z,11.11
2018-05-21T00:15:51.904Z,11.04
2018-05-21T00:16:51.755Z,10.95
2018-05-21T00:18:44.602Z,11.00
2018-05-21T00:19:44.402Z,10.90
2018-05-21T00:21:37.295Z,10.90
2018-05-21T00:22:37.418Z,11.03
2018-05-21T00:24:30.646Z,10.95
2018-05-21T00:25:30.128Z,10.90
2018-05-21T00:27:22.887Z,10.82
2018-05-21T00:28:22.753Z,10.86
2018-05-21T00:30:18.701Z,10.90
2018-05-21T00:31:18.636Z,10.97
2018-05-21T00:33:12.475Z,11.09
2018-05-21T00:34:12.370Z,11.00
2018-05-21T00:36:05.191Z,10.87
2018-05-21T00:37:05.102Z,10.97
2018-05-21T00:38:58.003Z,10.91
2018-05-21T00:39:57.864Z,10.87
2018-05-21T00:41:50.689Z,11.00
2018-05-21T00:42:50.719Z,10.90
2018-05-21T00:44:44.395Z,10.90
2018-05-21T00:45:44.277Z,10.87
2018-05-21T00:47:37.014Z,10.86
2018-05-21T00:48:36.914Z,10.87
2018-05-21T00:50:29.797Z,11.08
2018-05-21T00:51:29.561Z,11.11
2018-05-21T00:53:22.927Z,11.13
2018-05-21T00:54:22.312Z,11.15
2018-05-21T00:56:15.186Z,11.25
2018-05-21T00:57:15.071Z,11.15
2018-05-21T00:59:07.918Z,11.13
2018-05-21T01:00:07.839Z,11.05
2018-05-21T01:02:00.709Z,11.13
2018-05-21T01:03:00.596Z,11.05
2018-05-21T01:04:53.482Z,11.13
2018-05-21T01:05:53.208Z,11.05
2018-05-21T01:07:46.253Z,11.09
2018-05-21T01:08:46.052Z,11.04
2018-05-21T01:10:38.807Z,11.03
2018-05-21T01:11:38.714Z,11.09
2018-05-21T01:13:31.502Z,11.03
2018-05-21T01:14:31.356Z,11.11
2018-05-21T01:16:24.102Z,11.03
2018-05-21T01:17:23.997Z,10.97
2018-05-21T01:19:16.871Z,11.00
2018-05-21T01:20:16.644Z,10.90
2018-05-21T01:22:09.507Z,10.90
2018-05-21T01:23:09.396Z,10.97
2018-05-21T01:25:02.261Z,10.85
2018-05-21T01:26:02.144Z,10.83
2018-05-21T01:27:54.996Z,10.91
2018-05-21T01:28:54.909Z,10.87
2018-05-21T01:30:47.667Z,10.97
2018-05-21T01:31:47.561Z,10.95
2018-05-21T01:33:40.284Z,10.83
2018-05-21T01:34:40.196Z,10.82
2018-05-21T01:36:33.585Z,10.67
2018-05-21T01:37:33.474Z,10.73
2018-05-21T01:39:26.312Z,10.70
2018-05-21T01:40:26.103Z,10.65
2018-05-21T01:42:18.877Z,10.62
2018-05-21T01:43:18.787Z,10.67
2018-05-21T01:45:11.493Z,10.64
2018-05-21T01:46:11.393Z,10.58
2018-05-21T01:48:04.260Z,10.57
2018-05-21T01:49:04.143Z,10.49
2018-05-21T01:50:57.128Z,10.57
2018-05-21T01:51:56.903Z,10.45
2018-05-21T01:53:49.815Z,10.42
2018-05-21T01:54:49.644Z,10.41
2018-05-21T01:56:43.008Z,10.30
2018-05-21T01:57:42.452Z,10.35
2018-05-21T01:59:35.285Z,10.21
2018-05-21T02:00:35.138Z,10.24
2018-05-21T02:02:27.990Z,10.16
2018-05-21T02:03:27.893Z,10.16
2018-05-21T02:05:20.981Z,10.18
2018-05-21T02:06:20.843Z,10.09
2018-05-21T02:08:13.777Z,10.20
2018-05-21T02:09:13.649Z,10.18
2018-05-21T02:11:06.467Z,10.18
2018-05-21T02:12:06.366Z,10.20
2018-05-21T02:13:59.102Z,10.21
2018-05-21T02:14:59.019Z,10.14
2018-05-21T02:16:52.352Z,10.18
2018-05-21T02:17:51.947Z,10.08
2018-05-21T02:19:45.709Z,10.06
2018-05-21T02:20:45.610Z,10.08
2018-05-21T02:22:38.366Z,9.98
2018-05-21T02:23:38.261Z,10.01
2018-05-21T02:25:31.012Z,9.96
2018-05-21T02:26:30.922Z,9.94
2018-05-21T02:28:23.681Z,9.85
2018-05-21T02:29:23.559Z,9.83
2018-05-21T02:31:16.305Z,9.72
2018-05-21T02:32:16.204Z,9.67
2018-05-21T02:34:09.081Z,9.69
2018-05-21T02:35:08.945Z,9.70
2018-05-21T02:37:01.810Z,9.70
2018-05-21T02:38:01.721Z,9.62
2018-05-21T02:39:54.456Z,9.59
2018-05-21T02:40:54.358Z,9.59
2018-05-21T02:42:47.091Z,9.48
2018-05-21T02:43:46.995Z,9.42
2018-05-21T02:45:39.769Z,9.44
2018-05-21T02:46:39.653Z,9.40
2018-05-21T02:48:32.392Z,9.40
2018-05-21T02:49:32.290Z,9.33
2018-05-21T02:51:25.057Z,9.26
2018-05-21T02:52:24.964Z,9.18
2018-05-21T02:54:17.802Z,9.16
2018-05-21T02:55:17.714Z,9.23
2018-05-21T02:57:10.582Z,9.22
2018-05-21T02:58:10.332Z,9.22
2018-05-21T03:00:03.186Z,9.18
2018-05-21T03:01:03.090Z,9.22
2018-05-21T03:02:55.866Z,9.18
2018-05-21T03:03:55.772Z,9.06
2018-05-21T03:05:49.630Z,9.06
2018-05-21T03:06:49.502Z,8.99
2018-05-21T03:08:42.280Z,8.92
2018-05-21T03:09:42.188Z,8.83
2018-05-21T03:11:35.000Z,8.77
2018-05-21T03:12:34.908Z,8.78
2018-05-21T03:14:27.695Z,8.78
2018-05-21T03:15:27.565Z,8.80
2018-05-21T03:17:21.845Z,8.78
2018-05-21T03:18:21.734Z,8.88
2018-05-21T03:20:14.651Z,8.85
2018-05-21T03:21:14.378Z,8.80
2018-05-21T03:23:07.284Z,8.78
2018-05-21T03:24:07.133Z,8.77
2018-05-21T03:26:00.009Z,8.80
2018-05-21T03:26:59.887Z,8.83
2018-05-21T03:28:52.617Z,8.75
2018-05-21T03:29:52.526Z,8.83
2018-05-21T03:31:45.888Z,8.89
2018-05-21T03:32:45.728Z,8.80
2018-05-21T03:34:38.431Z,8.85
2018-05-21T03:35:38.331Z,8.86
2018-05-21T03:37:31.103Z,8.95
2018-05-21T03:38:30.983Z,8.89
2018-05-21T03:40:23.824Z,8.88
2018-05-21T03:41:23.739Z,8.72
2018-05-21T03:43:16.506Z,8.77
2018-05-21T03:44:16.623Z,8.70
2018-05-21T03:46:09.776Z,8.75
2018-05-21T03:47:09.122Z,8.63
2018-05-21T03:49:01.989Z,8.62
2018-05-21T03:50:01.882Z,8.75
2018-05-21T03:51:54.615Z,8.70
2018-05-21T03:52:54.549Z,8.62
2018-05-21T03:54:47.286Z,8.72
2018-05-21T03:55:47.173Z,8.63
2018-05-21T03:57:40.525Z,8.71
2018-05-21T03:58:39.915Z,8.74
2018-05-21T04:00:32.730Z,8.71
2018-05-21T04:01:32.574Z,8.63
2018-05-21T04:03:25.308Z,8.70
2018-05-21T04:04:25.234Z,8.72
2018-05-21T04:06:17.982Z,8.71
2018-05-21T04:07:17.904Z,8.75
2018-05-21T04:09:10.622Z,8.77
2018-05-21T04:10:10.514Z,8.71
2018-05-21T04:12:03.261Z,8.88
2018-05-21T04:13:03.159Z,8.77
2018-05-21T04:14:56.003Z,8.85
2018-05-21T04:15:55.899Z,8.89
2018-05-21T04:17:48.680Z,8.86
2018-05-21T04:18:48.726Z,8.81
2018-05-21T04:20:41.292Z,8.81
2018-05-21T04:21:41.208Z,8.88
2018-05-21T04:23:33.985Z,8.93
2018-05-21T04:24:33.841Z,9.01
2018-05-21T04:26:27.113Z,8.98
2018-05-21T04:27:26.998Z,8.98
2018-05-21T04:29:19.898Z,9.09
2018-05-21T04:30:19.651Z,9.08
2018-05-21T04:32:12.406Z,9.09
2018-05-21T04:33:12.298Z,9.06
2018-05-21T04:35:05.089Z,9.06
2018-05-21T04:36:04.948Z,9.12
2018-05-21T04:37:58.235Z,9.04
2018-05-21T04:38:58.109Z,9.03
2018-05-21T04:40:50.868Z,9.04
2018-05-21T04:41:50.769Z,9.06
2018-05-21T04:43:43.650Z,9.04
2018-05-21T04:44:43.512Z,9.22
2018-05-21T04:46:36.260Z,9.30
2018-05-21T04:47:36.161Z,9.30
2018-05-21T04:49:28.926Z,9.44
2018-05-21T04:50:28.796Z,9.51
2018-05-21T04:52:22.599Z,9.62
2018-05-21T04:53:22.474Z,9.66
2018-05-21T04:55:15.340Z,9.83
2018-05-21T04:56:15.217Z,9.70
2018-05-21T04:58:08.143Z,9.88
2018-05-21T04:59:07.963Z,9.84
2018-05-21T05:01:00.822Z,9.85
2018-05-21T05:02:00.626Z,9.85
2018-05-21T05:03:53.388Z,9.81
2018-05-21T05:04:53.259Z,9.96
2018-05-21T05:06:46.111Z,10.02
2018-05-21T05:07:46.016Z,10.08
2018-05-21T05:09:38.897Z,10.08
2018-05-21T05:10:38.761Z,10.17
2018-05-21T05:12:31.508Z,10.24
2018-05-21T05:13:31.420Z,10.27
2018-05-21T05:15:24.781Z,10.38
2018-05-21T05:16:24.153Z,10.43
2018-05-21T05:18:16.996Z,10.48
2018-05-21T05:19:16.927Z,10.46
2018-05-21T05:21:09.682Z,10.70
2018-05-21T05:22:09.572Z,10.65
2018-05-21T05:24:02.297Z,10.70
2018-05-21T05:25:02.202Z,10.72
2018-05-21T05:26:54.985Z,10.79
2018-05-21T05:27:54.851Z,10.86
2018-05-21T05:29:47.637Z,10.85
2018-05-21T05:30:47.515Z,10.90
2018-05-21T05:32:40.401Z,10.98
2018-05-21T05:33:40.253Z,11.04
2018-05-21T05:35:32.995Z,11.09
2018-05-21T05:36:32.892Z,11.23
2018-05-21T05:38:25.752Z,11.31
2018-05-21T05:39:25.685Z,11.34
2018-05-21T05:41:18.403Z,11.49
2018-05-21T05:42:18.290Z,11.46
2018-05-21T05:44:11.157Z,11.59
2018-05-21T05:45:10.941Z,11.61
2018-05-21T05:47:03.797Z,11.76
2018-05-21T05:48:03.693Z,11.79
2018-05-21T05:49:56.445Z,11.91
2018-05-21T05:50:56.331Z,12.03
2018-05-21T05:52:49.087Z,12.03
2018-05-21T05:53:48.999Z,12.11
2018-05-21T05:55:41.847Z,12.22
2018-05-21T05:56:41.729Z,12.29
2018-05-21T05:58:34.470Z,12.30
2018-05-21T05:59:34.501Z,12.33
2018-05-21T06:01:27.174Z,12.40
2018-05-21T06:02:27.081Z,12.43
2018-05-21T06:04:19.766Z,12.51
2018-05-21T06:05:19.707Z,12.53
2018-05-21T06:07:12.454Z,12.63
2018-05-21T06:08:12.317Z,12.61
2018-05-21T06:10:05.084Z,12.81
2018-05-21T06:11:04.981Z,12.77
2018-05-21T06:12:57.756Z,12.79
2018-05-21T06:13:57.648Z,12.91
2018-05-21T06:15:50.486Z,12.95
2018-05-21T06:16:50.369Z,13.06
2018-05-21T06:18:43.241Z,13.06
2018-05-21T06:19:43.011Z,13.05
2018-05-21T06:21:35.872Z,13.13
2018-05-21T06:22:35.782Z,13.14
2018-05-21T06:24:28.642Z,13.24
2018-05-21T06:25:28.509Z,13.35
2018-05-21T06:27:21.261Z,13.38
2018-05-21T06:28:21.169Z,13.40
2018-05-21T06:30:14.031Z,13.47
2018-05-21T06:31:13.902Z,13.61
2018-05-21T06:33:06.682Z,13.61
2018-05-21T06:34:06.636Z,13.64
2018-05-21T06:35:59.426Z,13.86
2018-05-21T06:36:59.308Z,13.98
2018-05-21T06:38:52.216Z,13.93
2018-05-21T06:39:51.953Z,13.98
2018-05-21T06:41:44.747Z,14.11
2018-05-21T06:42:44.605Z,14.08
2018-05-21T06:44:37.342Z,14.13
2018-05-21T06:45:37.252Z,14.18
2018-05-21T06:47:30.007Z,14.21
2018-05-21T06:48:29.911Z,14.21
2018-05-21T06:50:22.663Z,14.27
2018-05-21T06:51:22.554Z,14.33
2018-05-21T06:53:15.315Z,14.52
2018-05-21T06:54:15.198Z,14.63
2018-05-21T06:56:08.112Z,14.69
2018-05-21T06:57:08.105Z,14.77
2018-05-21T06:59:00.904Z,14.99
2018-05-21T07:00:00.731Z,14.90
2018-05-21T07:01:53.328Z,14.89
2018-05-21T07:02:53.234Z,14.96
2018-05-21T07:04:45.995Z,14.99
2018-05-21T07:05:45.930Z,14.89
2018-05-21T07:07:39.242Z,15.14
2018-05-21T07:08:39.147Z,15.20
2018-05-21T07:10:31.962Z,15.27
2018-05-21T07:11:31.796Z,15.25
2018-05-21T07:13:24.632Z,15.44
2018-05-21T07:14:24.560Z,15.52
2018-05-21T07:16:17.341Z,15.63
2018-05-21T07:17:17.197Z,15.70
2018-05-21T07:19:10.146Z,15.66
2018-05-21T07:20:09.969Z,15.72
2018-05-21T07:22:02.799Z,15.95
2018-05-21T07:23:02.688Z,15.95
2018-05-21T07:24:55.524Z,15.87
2018-05-21T07:25:55.471Z,15.91
2018-05-21T07:27:48.215Z,15.91
2018-05-21T07:28:48.079Z,15.96
2018-05-21T07:30:40.932Z,16.16
2018-05-21T07:31:40.840Z,16.22
2018-05-21T07:33:33.682Z,16.32
2018-05-21T07:34:33.579Z,16.26
2018-05-21T07:36:26.326Z,16.42
2018-05-21T07:37:26.233Z,16.36
2018-05-21T07:39:18.984Z,16.61
2018-05-21T07:40:18.874Z,16.73
2018-05-21T07:42:11.631Z,16.69
2018-05-21T07:43:11.532Z,16.76
2018-05-21T07:45:04.395Z,16.77
2018-05-21T07:46:04.199Z,16.88
2018-05-21T07:47:56.917Z,17.01
2018-05-21T07:48:56.837Z,16.95
2018-05-21T07:50:49.698Z,17.04
2018-05-21T07:51:49.577Z,16.98
2018-05-21T07:53:42.321Z,17.02
2018-05-21T07:54:42.225Z,17.10
2018-05-21T07:56:35.090Z,17.06
2018-05-21T07:57:34.968Z,17.10
2018-05-21T07:59:27.816Z,17.28
2018-05-21T08:00:27.712Z,17.45
2018-05-21T08:02:20.736Z,17.65
2018-05-21T08:03:20.516Z,17.66
2018-05-21T08:05:13.417Z,17.72
2018-05-21T08:06:13.265Z,17.83
2018-05-21T08:08:06.097Z,17.83
2018-05-21T08:09:05.956Z,17.86
2018-05-21T08:10:59.323Z,17.97
2018-05-21T08:11:59.144Z,17.96
2018-05-21T08:13:51.993Z,18.11
2018-05-21T08:14:51.977Z,18.20
2018-05-21T08:16:45.772Z,18.28
2018-05-21T08:17:44.621Z,18.30
2018-05-21T08:19:37.392Z,18.38
2018-05-21T08:20:37.289Z,18.49
2018-05-21T08:22:30.128Z,18.56
2018-05-21T08:23:30.018Z,18.63
2018-05-21T08:25:22.908Z,18.79
2018-05-21T08:26:22.824Z,18.83
2018-05-21T08:28:16.624Z,18.89
2018-05-21T08:29:15.521Z,19.00
2018-05-21T08:31:08.383Z,19.07
2018-05-21T08:32:08.267Z,19.09
2018-05-21T08:34:01.022Z,18.97
2018-05-21T08:35:00.925Z,18.98
2018-05-21T08:36:53.813Z,19.00
2018-05-21T08:37:53.669Z,18.96
2018-05-21T08:39:46.505Z,19.01
2018-05-21T08:40:46.408Z,18.98
2018-05-21T08:42:39.345Z,19.12
2018-05-21T08:43:39.163Z,19.15
2018-05-21T08:45:32.024Z,19.19
2018-05-21T08:46:31.940Z,19.19
2018-05-21T08:48:24.895Z,19.24
2018-05-21T08:49:24.669Z,19.26
2018-05-21T08:51:18.017Z,19.38
2018-05-21T08:52:17.427Z,19.41
2018-05-21T08:54:10.313Z,19.37
2018-05-21T08:55:10.244Z,19.52
2018-05-21T08:57:03.021Z,19.67
2018-05-21T08:58:02.970Z,19.90
2018-05-21T08:59:57.238Z,20.02
2018-05-21T09:00:57.105Z,19.79
2018-05-21T09:02:49.929Z,19.92
2018-05-21T09:03:49.854Z,19.99
2018-05-21T09:05:42.714Z,20.14
2018-05-21T09:06:42.605Z,20.33
2018-05-21T09:08:35.446Z,20.46
2018-05-21T09:09:35.344Z,20.49
2018-05-21T09:11:28.223Z,20.58
2018-05-21T09:12:28.176Z,20.58
2018-05-21T09:14:21.450Z,20.65
2018-05-21T09:15:20.879Z,20.67
2018-05-21T09:17:13.725Z,20.65
2018-05-21T09:18:13.590Z,20.68
2018-05-21T09:20:06.436Z,20.79
2018-05-21T09:21:06.342Z,20.86
2018-05-21T09:22:59.618Z,20.85
2018-05-21T09:23:59.523Z,20.88
2018-05-21T09:25:52.341Z,20.88
2018-05-21T09:26:52.290Z,20.52
2018-05-21T09:28:45.121Z,20.58
2018-05-21T09:29:44.997Z,20.67
2018-05-21T09:31:37.843Z,20.93
2018-05-21T09:32:37.758Z,21.03
2018-05-21T09:34:30.607Z,21.32
2018-05-21T09:35:30.517Z,21.19
2018-05-21T09:37:23.351Z,21.45
2018-05-21T09:38:23.255Z,21.45
2018-05-21T09:40:16.105Z,21.58
2018-05-21T09:41:16.121Z,21.63
2018-05-21T09:43:08.838Z,21.88
2018-05-21T09:44:08.782Z,21.71
2018-05-21T09:46:01.616Z,21.63
2018-05-21T09:47:01.513Z,21.62
2018-05-21T09:48:54.340Z,21.60
2018-05-21T09:49:54.263Z,21.67
2018-05-21T09:51:47.122Z,21.58
2018-05-21T09:52:47.009Z,21.47
2018-05-21T09:54:39.897Z,21.43
2018-05-21T09:55:39.748Z,21.62
2018-05-21T09:57:32.629Z,21.78
2018-05-21T09:58:32.587Z,21.93
2018-05-21T10:00:25.377Z,22.11
2018-05-21T10:01:25.257Z,22.09
2018-05-21T10:03:18.115Z,22.09
2018-05-21T10:04:18.012Z,22.16
2018-05-21T10:06:10.865Z,22.27
2018-05-21T10:07:10.798Z,22.04
2018-05-21T10:09:03.591Z,22.03
2018-05-21T10:10:03.507Z,22.00
2018-05-21T10:11:56.384Z,22.09
2018-05-21T10:12:56.245Z,22.27
2018-05-21T10:14:49.493Z,22.48
2018-05-21T10:15:49.425Z,22.66
2018-05-21T10:17:42.682Z,22.81
2018-05-21T10:18:42.571Z,22.71
2018-05-21T10:20:35.946Z,22.73
2018-05-21T10:21:35.874Z,22.66
2018-05-21T10:23:28.695Z,22.83
2018-05-21T10:24:28.573Z,22.85
2018-05-21T10:26:21.446Z,22.89
2018-05-21T10:27:21.331Z,22.92
2018-05-21T10:29:14.179Z,23.07
2018-05-21T10:30:14.073Z,23.08
2018-05-21T10:32:06.920Z,22.83
2018-05-21T10:33:06.823Z,22.77
2018-05-21T10:34:59.682Z,23.06
2018-05-21T10:35:59.577Z,23.22
2018-05-21T10:37:52.825Z,23.26
2018-05-21T10:38:52.745Z,23.22
2018-05-21T10:40:45.600Z,23.29
2018-05-21T10:41:45.494Z,23.25
2018-05-21T10:43:41.427Z,23.23
2018-05-21T10:44:38.247Z,23.25
2018-05-21T10:46:31.096Z,23.51
2018-05-21T10:47:31.039Z,23.51
2018-05-21T10:49:23.867Z,23.21
2018-05-21T10:50:23.751Z,23.11
2018-05-21T10:52:16.585Z,23.29
2018-05-21T10:53:16.513Z,23.39
2018-05-21T10:55:09.341Z,23.42
2018-05-21T10:56:09.255Z,23.42
2018-05-21T10:58:02.078Z,23.60
2018-05-21T10:59:02.025Z,23.63
2018-05-21T11:00:54.843Z,23.71
2018-05-21T11:01:54.759Z,23.73
2018-05-21T11:03:47.600Z,23.71
2018-05-21T11:04:47.513Z,23.89
2018-05-21T11:06:40.750Z,23.78
2018-05-21T11:07:40.657Z,23.89
2018-05-21T11:09:33.517Z,23.74
2018-05-21T11:10:33.416Z,23.63
2018-05-21T11:12:26.250Z,23.51
2018-05-21T11:13:26.157Z,23.46
2018-05-21T11:15:18.983Z,23.25
2018-05-21T11:16:18.902Z,23.41
2018-05-21T11:18:11.874Z,23.78
2018-05-21T11:19:11.748Z,23.76
2018-05-21T11:21:10.514Z,24.15
2018-05-21T11:22:09.631Z,24.31
2018-05-21T11:24:02.567Z,24.26
2018-05-21T11:25:02.459Z,24.38
2018-05-21T11:26:55.860Z,24.44
2018-05-21T11:27:55.325Z,24.53
2018-05-21T11:29:48.281Z,24.70
2018-05-21T11:30:48.188Z,24.75
2018-05-21T11:32:41.568Z,24.85
2018-05-21T11:33:41.438Z,24.81
2018-05-21T11:35:34.366Z,24.89
2018-05-21T11:36:34.279Z,24.86
2018-05-21T11:38:27.378Z,24.81
2018-05-21T11:39:27.256Z,24.70
2018-05-21T11:41:20.171Z,24.29
2018-05-21T11:42:20.099Z,24.26
2018-05-21T11:44:13.061Z,24.31
2018-05-21T11:45:12.951Z,24.16
2018-05-21T11:47:05.900Z,24.19
2018-05-21T11:48:05.804Z,24.29
2018-05-21T11:49:59.184Z,24.00
2018-05-21T11:50:58.651Z,24.08
2018-05-21T11:52:51.585Z,24.44
2018-05-21T11:53:51.520Z,24.56
2018-05-21T11:55:44.453Z,24.66
2018-05-21T11:56:44.529Z,24.56
2018-05-21T11:58:37.312Z,24.31
2018-05-21T11:59:37.250Z,24.13
2018-05-21T12:01:30.164Z,24.15
2018-05-21T12:02:30.059Z,24.31
2018-05-21T12:04:23.061Z,24.70
2018-05-21T12:05:22.928Z,24.93
2018-05-21T12:07:18.917Z,25.04
2018-05-21T12:08:18.847Z,24.94
2018-05-21T12:10:11.792Z,24.91
2018-05-21T12:11:11.968Z,24.93
2018-05-21T12:13:04.719Z,25.00
2018-05-21T12:14:04.556Z,24.97
2018-05-21T12:15:57.487Z,24.94
2018-05-21T12:16:57.400Z,24.84
2018-05-21T12:18:50.754Z,24.89
2018-05-21T12:19:50.402Z,24.84
2018-05-21T12:21:43.204Z,24.74
2018-05-21T12:22:43.100Z,24.84
2018-05-21T12:24:36.046Z,24.97
2018-05-21T12:25:35.937Z,24.68
2018-05-21T12:27:28.799Z,24.55
2018-05-21T12:28:28.690Z,24.89
2018-05-21T12:30:21.555Z,24.99
2018-05-21T12:31:21.443Z,25.11
2018-05-21T12:33:14.291Z,25.03
2018-05-21T12:34:14.268Z,24.86
2018-05-21T12:36:07.370Z,24.76
2018-05-21T12:37:07.245Z,24.84
2018-05-21T12:39:00.086Z,25.12
2018-05-21T12:40:00.005Z,25.22
2018-05-21T12:41:52.843Z,25.31
2018-05-21T12:42:52.748Z,25.41
2018-05-21T12:44:46.101Z,25.27
2018-05-21T12:45:46.021Z,25.33
2018-05-21T12:47:38.872Z,25.46
2018-05-21T12:48:38.776Z,25.56
2018-05-21T12:50:31.589Z,25.71
2018-05-21T12:51:31.532Z,25.71
2018-05-21T12:53:24.445Z,25.86
2018-05-21T12:54:24.261Z,25.86
2018-05-21T12:56:17.666Z,25.77
2018-05-21T12:57:17.017Z,25.48
2018-05-21T12:59:09.884Z,25.59
2018-05-21T13:00:09.770Z,25.67
2018-05-21T13:02:02.613Z,25.78
2018-05-21T13:03:02.503Z,25.63
2018-05-21T13:04:55.494Z,25.77
2018-05-21T13:05:55.457Z,25.74
2018-05-21T13:07:48.216Z,25.89
2018-05-21T13:08:49.189Z,25.93
2018-05-21T13:10:40.962Z,26.19
2018-05-21T13:11:40.873Z,26.30
2018-05-21T13:13:35.825Z,26.41
2018-05-21T13:14:35.682Z,26.42
2018-05-21T13:16:29.235Z,26.41
2018-05-21T13:17:27.919Z,26.45
2018-05-21T13:19:20.740Z,25.89
2018-05-21T13:20:20.637Z,25.93
2018-05-21T13:22:16.397Z,25.92
2018-05-21T13:23:15.958Z,26.19
2018-05-21T13:25:10.397Z,26.30
2018-05-21T13:26:10.406Z,26.23
2018-05-21T13:28:03.114Z,26.43
2018-05-21T13:29:04.530Z,26.61
2018-05-21T13:30:57.886Z,26.64
2018-05-21T13:31:58.952Z,26.86
2018-05-21T13:33:50.311Z,26.75
2018-05-21T13:34:50.229Z,26.90
2018-05-21T13:36:43.600Z,26.94
2018-05-21T13:37:43.506Z,26.75
2018-05-21T13:39:37.261Z,26.63
2018-05-21T13:40:37.170Z,26.80
2018-05-21T13:42:30.022Z,26.73
2018-05-21T13:43:29.906Z,26.70
2018-05-21T13:45:22.774Z,26.49
2018-05-21T13:46:22.683Z,26.48
2018-05-21T13:48:17.035Z,26.68
2018-05-21T13:49:15.449Z,26.71
2018-05-21T13:51:08.271Z,26.79
2018-05-21T13:52:08.191Z,26.76
2018-05-21T13:54:01.081Z,26.64
2018-05-21T13:55:01.040Z,26.63
2018-05-21T13:56:53.787Z,26.98
2018-05-21T13:57:53.657Z,27.13
2018-05-21T13:59:46.507Z,27.25
2018-05-21T14:00:46.599Z,27.44
2018-05-21T14:02:40.074Z,27.53
2018-05-21T14:03:40.013Z,27.26
2018-05-21T14:05:32.811Z,27.04
2018-05-21T14:06:32.739Z,27.15
2018-05-21T14:08:27.576Z,27.19
2018-05-21T14:09:27.448Z,27.26
2018-05-21T14:11:19.850Z,27.27
2018-05-21T14:12:20.640Z,27.31
2018-05-21T14:14:12.725Z,27.37
2018-05-21T14:15:12.652Z,27.25
2018-05-21T14:17:05.468Z,27.40
2018-05-21T14:18:05.362Z,27.38
2018-05-21T14:19:58.236Z,26.98
2018-05-21T14:20:58.144Z,26.78
2018-05-21T14:22:50.961Z,27.07
2018-05-21T14:23:50.861Z,27.22
2018-05-21T14:25:45.094Z,27.47
2018-05-21T14:26:44.125Z,27.41
2018-05-21T14:28:36.989Z,27.61
2018-05-21T14:29:37.042Z,27.58
2018-05-21T14:31:29.713Z,28.03
2018-05-21T14:32:29.625Z,27.97
2018-05-21T14:34:22.491Z,28.22
2018-05-21T14:35:22.371Z,28.34
2018-05-21T14:37:15.215Z,28.31
2018-05-21T14:38:15.122Z,28.32
2018-05-21T14:40:07.975Z,28.54
2018-05-21T14:41:07.874Z,28.69
2018-05-21T14:43:00.720Z,28.94
2018-05-21T14:44:00.659Z,28.53
2018-05-21T14:45:53.473Z,27.97
2018-05-21T14:46:53.386Z,28.10
2018-05-21T14:48:46.245Z,28.35
2018-05-21T14:49:46.123Z,28.59
2018-05-21T14:51:39.018Z,28.68
2018-05-21T14:52:38.876Z,28.86
2018-05-21T14:54:31.742Z,28.56
2018-05-21T14:55:31.645Z,28.69
2018-05-21T14:57:24.468Z,28.64
2018-05-21T14:58:24.371Z,28.61
2018-05-21T15:00:17.257Z,28.84
2018-05-21T15:01:17.139Z,28.91
2018-05-21T15:03:09.997Z,28.79
2018-05-21T15:04:09.872Z,28.71
2018-05-21T15:06:02.751Z,28.80
2018-05-21T15:07:02.619Z,28.64
2018-05-21T15:08:55.560Z,28.86
2018-05-21T15:09:55.385Z,28.90
2018-05-21T15:11:48.247Z,29.46
2018-05-21T15:12:48.129Z,29.56
2018-05-21T15:14:40.943Z,29.84
2018-05-21T15:15:40.865Z,30.11
2018-05-21T15:17:33.714Z,30.49
2018-05-21T15:18:33.619Z,30.71
2018-05-21T15:20:26.453Z,30.93
2018-05-21T15:21:26.375Z,30.90
2018-05-21T15:23:19.221Z,30.99
2018-05-21T15:24:19.116Z,30.60
2018-05-21T15:26:11.990Z,30.45
2018-05-21T15:27:11.866Z,30.30
2018-05-21T15:29:05.735Z,30.78
2018-05-21T15:30:05.129Z,30.93
2018-05-21T15:31:58.504Z,31.02
2018-05-21T15:32:58.387Z,30.82
2018-05-21T15:34:51.238Z,31.01
2018-05-21T15:35:51.141Z,30.80
2018-05-21T15:37:43.988Z,30.89
2018-05-21T15:38:43.885Z,30.95
2018-05-21T15:40:36.726Z,31.17
2018-05-21T15:41:36.635Z,30.93
2018-05-21T15:43:29.520Z,31.24
2018-05-21T15:44:29.393Z,31.41
2018-05-21T15:46:22.231Z,32.05
2018-05-21T15:47:22.141Z,32.14
2018-05-21T15:49:14.992Z,32.19
2018-05-21T15:50:15.011Z,31.97
2018-05-21T15:52:07.725Z,31.46
2018-05-21T15:53:07.671Z,31.61
2018-05-21T15:55:00.727Z,32.05
2018-05-21T15:56:00.385Z,32.33
2018-05-21T15:57:53.214Z,32.46
2018-05-21T15:58:53.134Z,32.31
2018-05-21T16:00:45.982Z,32.11
2018-05-21T16:01:45.914Z,31.60
2018-05-21T16:03:38.714Z,31.66
2018-05-21T16:04:38.644Z,31.48
2018-05-21T16:06:31.477Z,30.88
2018-05-21T16:07:31.379Z,30.96
2018-05-21T16:09:24.255Z,30.95
2018-05-21T16:10:24.149Z,30.65
2018-05-21T16:12:17.021Z,31.12
2018-05-21T16:13:16.922Z,31.23
2018-05-21T16:15:09.735Z,31.33
2018-05-21T16:16:09.627Z,31.32
2018-05-21T16:18:02.555Z,31.51
2018-05-21T16:19:02.408Z,31.59
2018-05-21T16:20:55.266Z,31.38
2018-05-21T16:21:55.126Z,31.34
2018-05-21T16:23:47.991Z,31.82
2018-05-21T16:24:47.886Z,32.17
2018-05-21T16:26:40.757Z,32.21
2018-05-21T16:27:40.645Z,32.31
2018-05-21T16:29:33.462Z,32.31
2018-05-21T16:30:33.391Z,32.04
2018-05-21T16:32:26.225Z,32.01
2018-05-21T16:33:26.136Z,32.13
2018-05-21T16:35:18.980Z,31.82
2018-05-21T16:36:19.019Z,31.71
2018-05-21T16:38:11.876Z,31.74
2018-05-21T16:39:11.649Z,32.23
2018-05-21T16:41:04.493Z,32.27
2018-05-21T16:42:04.391Z,32.04
2018-05-21T16:43:57.233Z,31.90
2018-05-21T16:44:57.144Z,32.11
2018-05-21T16:46:50.105Z,32.36
2018-05-21T16:47:50.071Z,32.58
2018-05-21T16:49:43.255Z,32.73
2018-05-21T16:50:43.154Z,32.64
2018-05-21T16:52:35.986Z,32.60
2018-05-21T16:53:35.904Z,32.63
2018-05-21T16:55:28.742Z,32.73
2018-05-21T16:56:28.653Z,32.95
2018-05-21T16:58:21.540Z,33.03
2018-05-21T16:59:21.400Z,33.03
2018-05-21T17:01:14.336Z,33.16
2018-05-21T17:02:14.163Z,33.30
2018-05-21T17:04:08.550Z,33.30
2018-05-21T17:05:08.439Z,32.91
2018-05-21T17:07:01.332Z,32.73
2018-05-21T17:08:01.187Z,32.75
2018-05-21T17:09:54.066Z,32.69
2018-05-21T17:10:53.942Z,32.50
2018-05-21T17:12:46.755Z,32.57
2018-05-21T17:13:46.698Z,32.58
2018-05-21T17:15:39.550Z,31.64
2018-05-21T17:16:39.436Z,31.75
2018-05-21T17:18:32.255Z,31.44
2018-05-21T17:19:32.182Z,30.73
2018-05-21T17:21:25.069Z,29.49
2018-05-21T17:22:24.986Z,29.02
2018-05-21T17:24:17.821Z,28.34
2018-05-21T17:25:17.679Z,28.53
2018-05-21T17:27:11.037Z,28.93
2018-05-21T17:28:10.950Z,29.10
2018-05-21T17:30:03.789Z,29.91
2018-05-21T17:31:03.694Z,30.39
2018-05-21T17:32:56.533Z,31.22
2018-05-21T17:33:56.438Z,31.17
2018-05-21T17:35:49.459Z,30.95
2018-05-21T17:36:49.192Z,30.36
2018-05-21T17:38:42.017Z,30.05
2018-05-21T17:39:41.982Z,30.35
2018-05-21T17:41:34.799Z,30.49
2018-05-21T17:42:34.703Z,30.83
2018-05-21T17:44:28.089Z,31.12
2018-05-21T17:45:27.958Z,30.89
2018-05-21T17:47:20.796Z,30.78
2018-05-21T17:48:20.701Z,30.53
2018-05-21T17:50:13.536Z,30.49
2018-05-21T17:51:13.456Z,30.52
2018-05-21T17:53:06.314Z,30.43
2018-05-21T17:54:06.217Z,30.08
2018-05-21T17:55:59.555Z,30.14
2018-05-21T17:56:59.466Z,30.21
2018-05-21T17:58:52.302Z,30.40
2018-05-21T17:59:52.219Z,30.26
2018-05-21T18:01:45.099Z,29.18
2018-05-21T18:02:45.005Z,28.28
2018-05-21T18:04:37.806Z,26.85
2018-05-21T18:05:37.738Z,25.92
2018-05-21T18:07:30.609Z,25.11
2018-05-21T18:08:30.467Z,24.89
2018-05-21T18:10:23.302Z,24.56
2018-05-21T18:11:23.209Z,24.36
2018-05-21T18:13:16.048Z,24.34
2018-05-21T18:14:15.960Z,24.28
2018-05-21T18:16:08.784Z,24.13
2018-05-21T18:17:08.708Z,24.07
2018-05-21T18:19:01.580Z,23.74
2018-05-21T18:20:01.454Z,23.76
2018-05-21T18:21:54.289Z,23.55
2018-05-21T18:22:54.210Z,23.49
2018-05-21T18:24:47.046Z,23.31
2018-05-21T18:25:46.960Z,23.36
2018-05-21T18:27:39.793Z,23.07
2018-05-21T18:28:39.706Z,22.96
2018-05-21T18:30:32.564Z,22.74
2018-05-21T18:31:32.453Z,22.49
2018-05-21T18:33:25.837Z,22.43
2018-05-21T18:34:25.708Z,22.33
2018-05-21T18:36:18.570Z,22.21
2018-05-21T18:37:18.495Z,22.22
2018-05-21T18:39:11.357Z,22.01